LYBELYVR

Guest
Details From LYBE - Belgrade
To LYVR - Vrsac
Flight Number -
Tags Routegen Generated
Created
Modified
Stats Distance 50 nm / 93 km
Max Altitude 100 ft / 30 m
Waypoints 5
Social Downloads 3
Likes 0
Share VATSIM

Download

Looking for another format? Having issues loading an existing format? Contact us
Advertisement - Login to hide

Notes

Departing runway 12 LYBE. Arriving runway 1 LYVR.

Route

LYBE +44.77_+020.41 +44.92_+020.85 +45.07_+021.29 LYVR

ID Type Via Altitude Latitude Longitude Leg Dist Tot Dist Heading (true) Name
O LYBE APT - 0 ft / 0 m 44.81034˚ 20.32745˚ - 0 nm - -
+44.77_+020.41 LATLON - 100 ft / 30 m 44.77193˚ 20.41388˚ 4 nm 4 nm 122° / 122° -
+44.92_+020.85 LATLON - 100 ft / 30 m 44.92182˚ 20.85052˚ 20 nm 25 nm 64° / 64° -
+45.07_+021.29 LATLON - 100 ft / 30 m 45.07170˚ 21.28716˚ 20 nm 45 nm 64° / 64° -
O LYVR APT - 0 ft / 0 m 45.14247˚ 21.30856˚ 4 nm 49 nm 12° / 12° -

Altitude Profile

Advertisement - Login to hide

LYBE

Details ICAO LYBE (BEG)
Name Belgrade
Region Serbia and Montenegro
Timezone Europe/Belgrade (UTC+1.0)
Stats Elevation 335 ft / 102 m (AMSL)
Location 44.818429° 20.309211°
Runways 1
Magnetic Variation 4.671° E

METAR

LYBE 131730Z 27004KT 9000 -RA BKN006 BKN030 03/02 Q1018 NOSIG

Decode

TAF

TAF LYBE 131100Z 1312/1412 33010KT 9999 SCT010 BKN025 TX10/1412Z TN02/1405Z TEMPO 1312/1319 4000 RA BR BKN007 BKN017 BECMG 1317/1319 20006KT TEMPO 1322/1405 3000 BR

Decode

Departure Runways

ID Width Length Bearing (true) Bearing (mag) Surface Threshold Offset Overrun Length
12 148 ft / 45 m 11,138 ft / 3,395 m 122.00° 117.33° Asphalt 1,000 ft / 305 m 0 ft / 0 m
30 148 ft / 45 m 11,138 ft / 3,395 m 302.03° 297.36° Asphalt 1,312 ft / 400 m 0 ft / 0 m

LYVR

Details ICAO LYVR
Name VRSAC
Region Serbia and Montenegro
Timezone Europe/Belgrade (UTC+1.0)
Stats Elevation 276 ft / 84 m (AMSL)
Location 45.147866° 21.308824°
Runways 3
Magnetic Variation 4.886° E

METAR

LYVR 131730Z 17003KT 9999 -RA SCT016 BKN033 04/03 Q1018 NOSIG

Decode

TAF

TAF LYVR 131100Z 1312/1412 32008KT 7000 BKN006 BKN020 TX08/1412Z TN02/1405Z TEMPO 1312/1320 4000 RA BR TEMPO 1322/1404 2000 BR BECMG 1404/1406 15015KT SCT033

Decode

Destination Runways

ID Width Length Bearing (true) Bearing (mag) Surface Threshold Offset Overrun Length
01L 230 ft / 70 m 2,738 ft / 835 m 12.21° 7.32° Grass 0 ft / 0 m 0 ft / 0 m
01R 72 ft / 22 m 3,286 ft / 1,002 m 12.05° 7.16° Asphalt 0 ft / 0 m 0 ft / 0 m
16 110 ft / 34 m 1,541 ft / 470 m 161.32° 156.43° Grass 0 ft / 0 m 0 ft / 0 m
19L 72 ft / 22 m 3,286 ft / 1,002 m 192.05° 187.16° Asphalt 0 ft / 0 m 0 ft / 0 m
19R 230 ft / 70 m 2,738 ft / 835 m 192.21° 187.32° Grass 0 ft / 0 m 0 ft / 0 m
34 110 ft / 34 m 1,541 ft / 470 m 341.33° 336.44° Grass 0 ft / 0 m 0 ft / 0 m

Popular Alternatives